createdAt,value
2022-08-30T00:01:50.466Z,99.90
2022-08-30T00:04:54.359Z,99.90
2022-08-30T00:07:57.585Z,99.90
2022-08-30T00:11:00.363Z,99.90
2022-08-30T00:14:02.554Z,99.90
2022-08-30T00:17:04.737Z,99.90
2022-08-30T00:20:08.701Z,99.90
2022-08-30T00:23:10.930Z,99.90
2022-08-30T00:26:13.082Z,99.90
2022-08-30T00:29:15.231Z,99.90
2022-08-30T00:32:18.476Z,99.90
2022-08-30T00:35:20.687Z,99.90
2022-08-30T00:38:24.274Z,99.90
2022-08-30T00:41:26.377Z,99.90
2022-08-30T00:44:28.531Z,99.90
2022-08-30T00:47:30.639Z,99.90
2022-08-30T00:50:43.403Z,99.90
2022-08-30T00:53:50.467Z,99.90
2022-08-30T00:56:52.554Z,99.90
2022-08-30T00:59:54.643Z,99.90
2022-08-30T01:02:56.869Z,99.90
2022-08-30T01:05:59.034Z,99.90
2022-08-30T01:09:02.229Z,99.90
2022-08-30T01:12:05.014Z,99.90
2022-08-30T01:15:07.693Z,99.90
2022-08-30T01:18:11.595Z,99.90
2022-08-30T01:21:41.368Z,99.90
2022-08-30T01:24:43.794Z,99.90
2022-08-30T01:27:53.839Z,99.90
2022-08-30T01:30:56.258Z,99.90
2022-08-30T01:33:58.390Z,99.90
2022-08-30T01:37:00.531Z,99.90
2022-08-30T01:40:03.148Z,99.90
2022-08-30T01:43:05.307Z,99.90
2022-08-30T01:46:07.883Z,99.90
2022-08-30T01:49:13.744Z,99.90
2022-08-30T01:52:16.238Z,99.90
2022-08-30T01:55:18.400Z,99.90
2022-08-30T01:58:20.542Z,99.90
2022-08-30T02:01:26.227Z,99.90
2022-08-30T02:04:28.346Z,99.90
2022-08-30T02:07:30.506Z,99.90
2022-08-30T02:10:32.750Z,99.90
2022-08-30T02:13:35.319Z,99.90
2022-08-30T02:16:37.457Z,99.90
2022-08-30T02:19:40.235Z,99.90
2022-08-30T02:22:43.415Z,99.90
2022-08-30T02:25:53.127Z,99.90
2022-08-30T02:28:55.313Z,99.90
2022-08-30T02:31:57.463Z,99.90
2022-08-30T02:34:59.569Z,99.90
2022-08-30T02:38:01.690Z,99.90
2022-08-30T02:41:03.948Z,99.90
2022-08-30T02:44:07.022Z,99.90
2022-08-30T02:47:09.155Z,99.90
2022-08-30T02:50:11.702Z,99.90
2022-08-30T02:53:14.170Z,99.90
2022-08-30T02:56:18.476Z,99.90
2022-08-30T02:59:21.003Z,99.90
2022-08-30T03:02:23.242Z,99.90
2022-08-30T03:05:26.144Z,99.90
2022-08-30T03:08:28.273Z,99.90
2022-08-30T03:11:30.386Z,99.90
2022-08-30T03:14:32.885Z,99.90
2022-08-30T03:17:35.096Z,99.90
2022-08-30T03:20:37.208Z,99.90
2022-08-30T03:23:40.875Z,99.90
2022-08-30T03:26:46.258Z,99.90
2022-08-30T03:29:48.797Z,99.90
2022-08-30T03:32:51.408Z,99.90
2022-08-30T03:35:53.549Z,99.90
2022-08-30T03:38:55.646Z,99.90
2022-08-30T03:41:57.768Z,99.90
2022-08-30T03:45:04.514Z,99.90
2022-08-30T03:48:06.675Z,99.90
2022-08-30T03:51:08.831Z,99.90
2022-08-30T03:54:11.010Z,99.90
2022-08-30T03:57:13.408Z,99.90
2022-08-30T04:00:22.519Z,99.90
2022-08-30T04:03:26.122Z,99.90
2022-08-30T04:06:28.469Z,99.90
2022-08-30T04:09:31.385Z,99.90
2022-08-30T04:12:33.454Z,99.90
2022-08-30T04:15:35.534Z,99.90
2022-08-30T04:18:37.752Z,99.90
2022-08-30T04:21:43.115Z,99.90
2022-08-30T04:24:45.421Z,99.90
2022-08-30T04:27:47.581Z,99.90
2022-08-30T04:30:49.649Z,99.90
2022-08-30T04:33:51.705Z,99.90
2022-08-30T04:36:53.784Z,99.90
2022-08-30T04:39:57.693Z,99.90
2022-08-30T04:43:00.218Z,99.90
2022-08-30T04:46:05.640Z,99.90
2022-08-30T04:49:08.191Z,99.90
2022-08-30T04:52:11.040Z,99.90
2022-08-30T04:55:16.836Z,99.90
2022-08-30T04:58:22.049Z,99.90
2022-08-30T05:01:26.906Z,99.90
2022-08-30T05:04:29.467Z,99.90
2022-08-30T05:07:31.887Z,99.90
2022-08-30T05:10:34.428Z,99.90
2022-08-30T05:13:36.986Z,99.90
2022-08-30T05:16:39.757Z,99.90
2022-08-30T05:19:41.915Z,99.90
2022-08-30T05:22:53.570Z,99.90
2022-08-30T05:25:56.222Z,99.90
2022-08-30T05:28:58.608Z,99.90
2022-08-30T05:32:00.751Z,99.90
2022-08-30T05:35:06.574Z,99.90
2022-08-30T05:38:08.780Z,99.90
2022-08-30T05:41:12.363Z,99.90
2022-08-30T05:44:14.446Z,99.90
2022-08-30T05:47:16.564Z,99.90
2022-08-30T05:50:18.772Z,99.90
2022-08-30T05:53:20.839Z,99.90
2022-08-30T05:56:30.143Z,99.90
2022-08-30T05:59:32.239Z,99.90
2022-08-30T06:02:34.317Z,99.90
2022-08-30T06:05:37.669Z,99.90
2022-08-30T06:08:40.403Z,99.90
2022-08-30T06:11:43.698Z,99.90
2022-08-30T06:14:45.807Z,99.90
2022-08-30T06:17:48.556Z,99.90
2022-08-30T06:20:51.336Z,99.90
2022-08-30T06:23:53.692Z,99.90
2022-08-30T06:26:55.821Z,99.90
2022-08-30T06:29:57.907Z,99.90
2022-08-30T06:33:00.086Z,99.90
2022-08-30T06:36:07.048Z,99.90
2022-08-30T06:39:09.247Z,99.90
2022-08-30T06:42:11.362Z,99.90
2022-08-30T06:45:15.512Z,99.90
2022-08-30T06:48:17.807Z,99.90
2022-08-30T06:51:28.791Z,99.90
2022-08-30T06:54:31.394Z,99.90
2022-08-30T06:57:33.502Z,99.90
2022-08-30T07:00:35.574Z,99.90
2022-08-30T07:03:38.795Z,99.90
2022-08-30T07:06:40.884Z,99.90
2022-08-30T07:09:43.673Z,99.90
2022-08-30T07:12:45.885Z,99.90
2022-08-30T07:15:48.132Z,99.90
2022-08-30T07:18:56.538Z,99.90
2022-08-30T07:21:58.611Z,99.90
2022-08-30T07:25:00.934Z,99.90
2022-08-30T07:28:03.460Z,99.90
2022-08-30T07:31:06.133Z,99.90
2022-08-30T07:34:08.862Z,99.90
2022-08-30T07:37:10.931Z,99.90
2022-08-30T07:40:20.243Z,99.90
2022-08-30T07:43:22.395Z,99.90
2022-08-30T07:46:24.816Z,99.90
2022-08-30T07:49:26.996Z,99.90
2022-08-30T07:52:30.835Z,99.90
2022-08-30T07:55:33.037Z,99.90
2022-08-30T07:58:37.563Z,99.90
2022-08-30T08:01:39.722Z,99.90
2022-08-30T08:04:41.819Z,99.90
2022-08-30T08:07:43.928Z,99.90
2022-08-30T08:10:46.429Z,99.90
2022-08-30T08:13:53.704Z,99.90
2022-08-30T08:16:56.527Z,99.90
2022-08-30T08:19:58.688Z,99.90
2022-08-30T08:23:00.795Z,99.90
2022-08-30T08:26:03.319Z,99.90
2022-08-30T08:29:07.521Z,99.90
2022-08-30T08:32:09.815Z,99.90
2022-08-30T08:35:11.941Z,99.90
2022-08-30T08:38:14.097Z,99.90
2022-08-30T08:42:04.100Z,99.90
2022-08-30T08:45:14.416Z,99.90
2022-08-30T08:48:51.790Z,99.90
2022-08-30T08:52:14.147Z,99.90
2022-08-30T08:55:19.100Z,99.90
2022-08-30T08:58:29.859Z,99.90
2022-08-30T09:01:33.508Z,99.90
2022-08-30T09:04:37.084Z,99.90
2022-08-30T09:07:42.647Z,99.90
2022-08-30T09:10:56.968Z,99.90
2022-08-30T09:13:59.462Z,99.90
2022-08-30T09:17:15.799Z,99.90
2022-08-30T09:20:43.310Z,99.90
2022-08-30T09:24:01.825Z,99.90
2022-08-30T09:31:04.457Z,99.90
2022-08-30T09:34:17.080Z,99.90
2022-08-30T09:37:36.099Z,99.90
2022-08-30T09:40:50.163Z,99.90
2022-08-30T09:44:17.202Z,99.90
2022-08-30T09:47:28.574Z,99.90
2022-08-30T09:50:33.620Z,99.90
2022-08-30T09:58:03.866Z,99.90
2022-08-30T10:01:36.081Z,99.90
2022-08-30T10:04:52.843Z,99.90
2022-08-30T10:08:16.000Z,99.90
2022-08-30T10:11:50.587Z,99.90
2022-08-30T10:15:27.978Z,99.90
2022-08-30T10:18:43.604Z,99.90
2022-08-30T10:21:58.177Z,99.90
2022-08-30T10:25:31.262Z,99.90
2022-08-30T10:29:07.792Z,99.90
2022-08-30T10:32:35.722Z,99.90
2022-08-30T10:35:51.146Z,99.10
2022-08-30T10:38:53.384Z,99.90
2022-08-30T10:42:13.718Z,99.50
2022-08-30T10:45:17.110Z,99.20
2022-08-30T10:48:48.586Z,99.90
2022-08-30T10:52:12.228Z,99.90
2022-08-30T10:55:25.845Z,99.90
2022-08-30T10:58:27.971Z,99.90
2022-08-30T11:02:20.332Z,99.90
2022-08-30T11:05:34.573Z,99.70
2022-08-30T11:09:26.650Z,99.80
2022-08-30T11:12:41.584Z,98.40
2022-08-30T11:16:18.844Z,98.40
2022-08-30T11:19:38.776Z,98.50
2022-08-30T11:23:18.898Z,99.00
2022-08-30T11:26:45.876Z,98.10
2022-08-30T11:29:48.556Z,97.20
2022-08-30T11:33:46.199Z,96.10
2022-08-30T11:37:01.506Z,96.00
2022-08-30T11:40:24.820Z,97.30
2022-08-30T11:43:40.347Z,97.00
2022-08-30T11:46:43.227Z,98.30
2022-08-30T11:50:39.073Z,97.50
2022-08-30T11:53:50.415Z,97.20
2022-08-30T11:57:04.459Z,96.10
2022-08-30T12:00:28.466Z,95.40
2022-08-30T12:03:32.887Z,95.10
2022-08-30T12:06:41.080Z,95.70
2022-08-30T12:09:47.934Z,96.10
2022-08-30T12:12:51.714Z,97.00
2022-08-30T12:16:03.365Z,97.40
2022-08-30T12:19:21.459Z,95.90
2022-08-30T12:22:23.740Z,94.70
2022-08-30T12:25:33.883Z,95.60
2022-08-30T12:28:37.431Z,94.20
2022-08-30T12:31:58.353Z,95.10
2022-08-30T12:35:03.790Z,94.90
2022-08-30T12:38:12.182Z,95.80
2022-08-30T12:41:19.754Z,95.30
2022-08-30T12:44:27.510Z,95.30
2022-08-30T12:47:54.756Z,94.40
2022-08-30T12:50:59.270Z,95.40
2022-08-30T12:54:15.064Z,94.80
2022-08-30T12:57:43.219Z,94.10
2022-08-30T13:00:47.314Z,93.10
2022-08-30T13:04:17.297Z,96.50
2022-08-30T13:07:34.200Z,93.70
2022-08-30T13:10:37.525Z,92.30
2022-08-30T13:13:52.602Z,92.90
2022-08-30T13:17:07.079Z,93.60
2022-08-30T13:20:12.111Z,93.00
2022-08-30T13:23:23.145Z,93.60
2022-08-30T13:26:25.414Z,93.10
2022-08-30T13:29:29.534Z,93.90
2022-08-30T13:32:38.744Z,93.10
2022-08-30T13:35:41.209Z,93.70
2022-08-30T13:38:43.358Z,95.50
2022-08-30T13:41:45.482Z,94.70
2022-08-30T13:44:47.987Z,92.90
2022-08-30T13:47:50.370Z,92.40
2022-08-30T13:50:53.638Z,92.80
2022-08-30T13:53:55.922Z,91.50
2022-08-30T13:56:59.123Z,92.00
2022-08-30T14:00:01.271Z,93.40
2022-08-30T14:03:03.430Z,93.10
2022-08-30T14:06:31.607Z,93.50
2022-08-30T14:09:27.686Z,93.30
2022-08-30T14:16:26.580Z,91.40
2022-08-30T14:19:18.115Z,90.90
2022-08-30T14:22:20.746Z,90.70
2022-08-30T14:25:23.089Z,89.50
2022-08-30T14:28:28.474Z,91.10
2022-08-30T14:31:32.649Z,91.50
2022-08-30T14:34:35.631Z,91.20
2022-08-30T14:37:37.796Z,94.00
2022-08-30T14:40:41.479Z,91.00
2022-08-30T14:43:43.891Z,86.00
2022-08-30T14:46:46.334Z,88.50
2022-08-30T14:49:48.473Z,90.80
2022-08-30T14:52:50.596Z,86.10
2022-08-30T14:55:52.756Z,83.10
2022-08-30T14:59:00.320Z,78.30
2022-08-30T15:02:02.615Z,80.30
2022-08-30T15:05:06.937Z,79.60
2022-08-30T15:08:10.727Z,79.10
2022-08-30T15:11:14.663Z,81.20
2022-08-30T15:14:17.557Z,84.40
2022-08-30T15:17:19.686Z,84.80
2022-08-30T15:20:22.194Z,88.70
2022-08-30T15:23:24.939Z,86.00
2022-08-30T15:26:27.531Z,79.10
2022-08-30T15:29:31.588Z,76.50
2022-08-30T15:32:33.914Z,77.40
2022-08-30T15:35:36.088Z,75.90
2022-08-30T15:38:38.362Z,81.20
2022-08-30T15:41:44.439Z,75.40
2022-08-30T15:44:51.367Z,75.90
2022-08-30T15:47:53.982Z,71.60
2022-08-30T15:50:59.061Z,67.60
2022-08-30T15:54:01.176Z,67.00
2022-08-30T15:57:05.864Z,65.30
2022-08-30T16:00:10.099Z,69.00
2022-08-30T16:03:12.398Z,67.40
2022-08-30T16:06:16.376Z,70.40
2022-08-30T16:09:18.584Z,66.90
2022-08-30T16:12:23.660Z,64.70
2022-08-30T16:15:26.811Z,73.90
2022-08-30T16:18:29.092Z,63.60
2022-08-30T16:21:33.023Z,74.90
2022-08-30T16:24:35.116Z,61.50
2022-08-30T16:27:42.156Z,64.50
2022-08-30T16:30:44.314Z,72.50
2022-08-30T16:33:47.615Z,63.50
2022-08-30T16:36:55.087Z,67.80
2022-08-30T16:39:57.245Z,66.60
2022-08-30T16:42:59.343Z,62.90
2022-08-30T16:46:03.415Z,66.50
2022-08-30T16:49:05.692Z,67.40
2022-08-30T16:52:11.462Z,68.80
2022-08-30T16:55:13.793Z,73.20
2022-08-30T16:58:18.851Z,68.20
2022-08-30T17:01:22.201Z,69.10
2022-08-30T17:04:24.378Z,68.20
2022-08-30T17:07:27.356Z,68.40
2022-08-30T17:10:33.367Z,70.50
2022-08-30T17:13:35.727Z,68.10
2022-08-30T17:16:38.404Z,73.00
2022-08-30T17:19:43.090Z,73.50
2022-08-30T17:22:46.223Z,74.40
2022-08-30T17:25:48.819Z,71.30
2022-08-30T17:28:50.949Z,71.70
2022-08-30T17:31:53.127Z,78.90
2022-08-30T17:34:55.282Z,75.50
2022-08-30T17:37:57.450Z,74.70
2022-08-30T17:41:07.833Z,74.50
2022-08-30T17:44:12.128Z,72.70
2022-08-30T17:47:14.438Z,73.80
2022-08-30T17:50:19.429Z,79.00
2022-08-30T17:53:21.695Z,74.70
2022-08-30T17:56:34.148Z,82.90
2022-08-30T17:59:37.630Z,79.30
2022-08-30T18:02:39.828Z,76.40
2022-08-30T18:05:43.719Z,73.80
2022-08-30T18:08:49.024Z,75.10
2022-08-30T18:11:56.248Z,75.00
2022-08-30T18:14:58.757Z,73.90
2022-08-30T18:18:00.976Z,74.00
2022-08-30T18:21:16.651Z,78.50
2022-08-30T18:24:18.992Z,80.30
2022-08-30T18:27:21.305Z,76.70
2022-08-30T18:30:33.226Z,84.90
2022-08-30T18:33:36.848Z,81.20
2022-08-30T18:36:41.345Z,83.10
2022-08-30T18:39:43.571Z,83.10
2022-08-30T18:42:45.693Z,85.60
2022-08-30T18:45:50.838Z,85.20
2022-08-30T18:48:52.965Z,87.30
2022-08-30T18:51:55.066Z,88.90
2022-08-30T18:54:57.199Z,89.50
2022-08-30T18:58:02.528Z,90.10
2022-08-30T19:01:04.851Z,90.40
2022-08-30T19:04:07.095Z,90.60
2022-08-30T19:07:11.107Z,91.20
2022-08-30T19:10:15.669Z,91.20
2022-08-30T19:13:23.411Z,91.80
2022-08-30T19:16:26.258Z,92.30
2022-08-30T19:19:28.391Z,92.60
2022-08-30T19:22:44.575Z,93.20
2022-08-30T19:25:53.395Z,93.60
2022-08-30T19:28:56.404Z,94.10
2022-08-30T19:31:58.471Z,94.90
2022-08-30T19:35:00.773Z,95.80
2022-08-30T19:38:02.951Z,97.20
2022-08-30T19:41:05.315Z,98.30
2022-08-30T19:44:07.482Z,98.70
2022-08-30T19:47:09.677Z,99.30
2022-08-30T19:50:12.758Z,99.90
2022-08-30T19:53:14.827Z,99.90
2022-08-30T19:56:16.919Z,99.90
2022-08-30T19:59:19.366Z,99.90
2022-08-30T20:02:22.384Z,99.90
2022-08-30T20:05:24.515Z,99.90
2022-08-30T20:08:26.600Z,99.90
2022-08-30T20:11:28.765Z,99.90
2022-08-30T20:14:30.962Z,99.90
2022-08-30T20:17:47.819Z,99.90
2022-08-30T20:20:55.351Z,99.90
2022-08-30T20:23:57.415Z,99.90
2022-08-30T20:26:59.487Z,99.90
2022-08-30T20:30:03.892Z,99.90
2022-08-30T20:33:08.996Z,99.90
2022-08-30T20:36:11.406Z,99.90
2022-08-30T20:39:17.393Z,99.90
2022-08-30T20:42:20.472Z,99.90
2022-08-30T20:45:22.553Z,99.90
2022-08-30T20:48:27.103Z,99.90
2022-08-30T20:51:29.299Z,99.90
2022-08-30T20:54:31.867Z,99.90
2022-08-30T20:57:34.111Z,99.90
2022-08-30T21:00:36.339Z,99.90
2022-08-30T21:03:38.999Z,99.90
2022-08-30T21:06:41.076Z,99.90
2022-08-30T21:09:43.275Z,99.90
2022-08-30T21:12:45.393Z,99.90
2022-08-30T21:15:55.417Z,99.90
2022-08-30T21:19:03.470Z,99.90
2022-08-30T21:22:05.775Z,99.90
2022-08-30T21:25:08.397Z,99.90
2022-08-30T21:28:10.616Z,99.90
2022-08-30T21:31:17.020Z,99.90
2022-08-30T21:34:19.200Z,99.90
2022-08-30T21:37:21.894Z,99.90
2022-08-30T21:40:24.003Z,99.90
2022-08-30T21:43:26.145Z,99.90
2022-08-30T21:46:32.367Z,99.90
2022-08-30T21:49:34.708Z,99.90
2022-08-30T21:52:36.871Z,99.90
2022-08-30T21:55:38.983Z,99.90
2022-08-30T21:58:41.584Z,99.90
2022-08-30T22:01:43.799Z,99.90
2022-08-30T22:04:45.939Z,99.90
2022-08-30T22:07:48.023Z,99.90
2022-08-30T22:10:50.308Z,99.90
2022-08-30T22:13:53.042Z,99.90
2022-08-30T22:16:55.222Z,99.90
2022-08-30T22:19:57.402Z,99.90
2022-08-30T22:22:59.464Z,99.90
2022-08-30T22:26:01.826Z,99.90
2022-08-30T22:29:05.645Z,99.90
2022-08-30T22:32:08.382Z,99.90
2022-08-30T22:35:11.005Z,99.90
2022-08-30T22:38:14.538Z,99.90
2022-08-30T22:41:18.125Z,99.90
2022-08-30T22:44:20.230Z,99.90
2022-08-30T22:47:22.344Z,99.90
2022-08-30T22:50:24.415Z,99.90
2022-08-30T22:53:26.515Z,99.90
2022-08-30T22:56:28.795Z,99.90
2022-08-30T22:59:32.240Z,99.90
2022-08-30T23:02:35.097Z,99.90
2022-08-30T23:05:37.518Z,99.90
2022-08-30T23:08:39.647Z,99.90
2022-08-30T23:11:41.738Z,99.90
2022-08-30T23:14:43.819Z,99.90
2022-08-30T23:17:45.925Z,99.90
2022-08-30T23:20:48.038Z,99.90
2022-08-30T23:24:09.668Z,99.90
2022-08-30T23:27:30.380Z,99.90
2022-08-30T23:30:51.696Z,99.90
2022-08-30T23:34:12.607Z,99.90
2022-08-30T23:37:33.508Z,99.90
2022-08-30T23:40:54.499Z,99.90
2022-08-30T23:44:15.356Z,99.90
2022-08-30T23:47:36.340Z,99.90
2022-08-30T23:50:57.040Z,99.90
2022-08-30T23:54:18.042Z,99.90
2022-08-30T23:57:38.819Z,99.90
